Time;durP1;ratioP1;P1;durP2;ratioP2;P2;SDS_P1;SDS_P2;PMS_P1;PMS_P2;Temp;Humidity;BMP_temperature;BMP_pressure;BME280_temperature;BME280_humidity;BME280_pressure;Samples;Min_cycle;Max_cycle;Signal;HPM_P1;HPM_P2
2021/06/12 00:00:06;;;;;;;5.30;4.37;;;;;;;20.07;85.62;101007.75;5014352;28;20484;-67
2021/06/12 00:02:32;;;;;;;7.40;4.23;;;;;;;20.07;85.95;101005.00;5014591;28;20831;-67
2021/06/12 00:04:58;;;;;;;5.53;3.87;;;;;;;20.05;85.84;101006.50;5026761;28;20443;-67
2021/06/12 00:07:24;;;;;;;6.27;4.33;;;;;;;20.03;86.18;101000.59;5033568;28;20522;-67
2021/06/12 00:09:50;;;;;;;13.53;4.90;;;;;;;20.03;86.01;101004.13;5034230;28;20435;-66
2021/06/12 00:12:18;;;;;;;6.50;3.63;;;;;;;20.04;86.57;100999.41;5033908;28;20491;-66
2021/06/12 00:14:44;;;;;;;5.70;4.40;;;;;;;20.05;85.97;100995.50;5034273;28;20518;-67
2021/06/12 00:17:10;;;;;;;11.93;4.20;;;;;;;20.01;86.16;100989.94;5033852;28;20535;-67
2021/06/12 00:19:35;;;;;;;5.23;4.20;;;;;;;20.01;86.73;100991.88;5034188;28;20861;-67
2021/06/12 00:22:01;;;;;;;6.37;5.47;;;;;;;19.97;86.96;100996.50;5033817;28;20467;-67
2021/06/12 00:24:27;;;;;;;5.27;4.03;;;;;;;19.94;86.59;100986.22;5034055;28;20480;-67
2021/06/12 00:26:53;;;;;;;4.93;4.03;;;;;;;19.91;87.15;100999.50;5034112;28;20516;-67
2021/06/12 00:29:21;;;;;;;4.33;3.27;;;;;;;19.91;87.23;100982.22;5033914;28;20458;-66
2021/06/12 00:31:47;;;;;;;6.50;4.97;;;;;;;19.91;87.18;100988.50;5033869;28;20465;-69
2021/06/12 00:34:13;;;;;;;5.43;4.10;;;;;;;19.82;87.23;100998.09;5033877;28;20940;-68
2021/06/12 00:36:39;;;;;;;5.53;4.00;;;;;;;19.81;86.89;100983.53;5033892;28;20937;-68
2021/06/12 00:39:05;;;;;;;4.40;3.70;;;;;;;19.85;86.00;100981.69;5033754;28;20826;-69
2021/06/12 00:41:31;;;;;;;4.83;4.03;;;;;;;19.84;87.30;100982.84;5020348;28;233400;-69
2021/06/12 00:43:56;;;;;;;4.80;3.50;;;;;;;19.89;86.90;100979.03;5022244;28;20534;-68
2021/06/12 00:46:24;;;;;;;4.33;3.43;;;;;;;19.91;86.49;100969.25;5034668;28;20818;-68
2021/06/12 00:48:52;;;;;;;4.20;3.23;;;;;;;19.91;85.75;100971.22;5034265;28;20948;-68
2021/06/12 00:51:18;;;;;;;3.90;2.87;;;;;;;19.90;86.56;100975.91;5034514;28;20497;-68
2021/06/12 00:53:44;;;;;;;4.00;3.50;;;;;;;19.95;86.55;100972.09;5034592;28;20811;-68
2021/06/12 00:56:12;;;;;;;7.13;4.10;;;;;;;19.99;86.54;100967.50;5034475;28;20443;-69
2021/06/12 00:58:42;;;;;;;3.90;3.50;;;;;;;20.01;86.49;100961.63;5034069;28;20975;-69
2021/06/12 01:01:09;;;;;;;4.93;3.33;;;;;;;20.02;86.09;100971.50;5033837;28;20859;-68
2021/06/12 01:03:39;;;;;;;6.13;3.70;;;;;;;20.01;86.06;100964.38;5032888;28;20450;-69
2021/06/12 01:06:06;;;;;;;6.50;3.80;;;;;;;20.01;85.86;100958.88;5014561;28;20543;-69
2021/06/12 01:08:32;;;;;;;4.80;3.67;;;;;;;20.07;86.05;100961.00;5014542;28;20502;-69
2021/06/12 01:10:58;;;;;;;3.20;2.83;;;;;;;20.08;85.92;100959.06;5014083;28;20938;-68
2021/06/12 01:13:31;;;;;;;4.10;3.27;;;;;;;20.08;85.91;100961.81;5014465;28;20451;-69
2021/06/12 01:16:01;;;;;;;4.50;3.37;;;;;;;20.07;85.41;100965.72;5014974;28;20429;-69
2021/06/12 01:18:31;;;;;;;5.33;3.33;;;;;;;20.03;85.34;100962.09;5014404;28;20435;-68
2021/06/12 01:21:13;;;;;;;7.30;4.40;;;;;;;20.03;85.64;100967.59;5014437;28;20464;-69
2021/06/12 01:24:16;;;;;;;4.27;3.03;;;;;;;20.07;85.51;100962.97;5014344;28;20462;-69
2021/06/12 01:27:02;;;;;;;7.90;3.90;;;;;;;20.03;85.90;100953.81;5014168;28;20424;-69
2021/06/12 01:29:38;;;;;;;4.30;3.30;;;;;;;19.99;86.37;100951.00;5013817;28;20459;-69
2021/06/12 01:32:08;;;;;;;5.50;3.47;;;;;;;20.04;86.67;100952.66;5014180;28;20459;-68
2021/06/12 01:34:36;;;;;;;4.30;3.10;;;;;;;20.03;86.23;100956.59;5014347;28;20506;-68
2021/06/12 01:37:06;;;;;;;5.03;3.63;;;;;;;20.04;86.32;100955.41;5014029;28;20486;-69
2021/06/12 01:39:33;;;;;;;4.70;3.60;;;;;;;20.04;86.20;100964.47;5013862;28;20428;-69
2021/06/12 01:42:02;;;;;;;4.83;3.70;;;;;;;20.04;86.67;100958.16;5013742;28;20515;-69
2021/06/12 01:44:31;;;;;;;8.33;3.80;;;;;;;20.07;86.58;100960.22;5013807;28;20525;-69
2021/06/12 01:46:58;;;;;;;6.47;4.17;;;;;;;20.07;86.86;100957.47;5014004;28;20440;-69
2021/06/12 01:49:26;;;;;;;4.60;3.60;;;;;;;20.08;86.61;100948.06;5013826;28;20437;-69
2021/06/12 01:51:52;;;;;;;5.50;3.60;;;;;;;20.07;86.75;100946.47;5013963;28;20468;-70
2021/06/12 01:54:19;;;;;;;4.80;3.47;;;;;;;20.07;86.68;100940.97;5013791;28;20451;-69
2021/06/12 01:56:46;;;;;;;4.57;3.37;;;;;;;20.05;86.99;100940.50;5013706;28;20444;-68
2021/06/12 01:59:13;;;;;;;5.17;3.53;;;;;;;20.05;87.02;100941.31;5013414;28;20440;-69
2021/06/12 02:01:42;;;;;;;5.00;3.50;;;;;;;20.05;86.47;100943.25;5013335;28;20609;-70
2021/06/12 02:04:09;;;;;;;5.77;3.20;;;;;;;20.03;86.22;100938.13;5019411;28;20439;-69
2021/06/12 02:06:37;;;;;;;4.80;3.33;;;;;;;19.99;86.35;100945.50;5033315;28;20450;-69
2021/06/12 02:09:04;;;;;;;4.97;3.87;;;;;;;20.01;86.57;100948.69;5033309;28;20438;-69
2021/06/12 02:11:31;;;;;;;5.40;3.53;;;;;;;20.00;85.96;100951.78;5033174;28;20459;-69
2021/06/12 02:13:57;;;;;;;3.70;3.20;;;;;;;20.01;86.82;100948.69;5033273;28;20443;-69
2021/06/12 02:16:25;;;;;;;4.20;3.80;;;;;;;20.00;86.16;100962.78;5033161;28;20443;-69
2021/06/12 02:18:52;;;;;;;3.67;3.23;;;;;;;19.99;86.40;100955.69;5032844;28;20972;-68
2021/06/12 02:21:20;;;;;;;4.70;4.07;;;;;;;20.01;86.42;100950.63;5037459;28;20486;-69
2021/06/12 02:23:50;;;;;;;5.27;3.70;;;;;;;20.03;86.49;100946.38;5053014;28;20446;-69
2021/06/12 02:26:18;;;;;;;4.23;3.43;;;;;;;20.07;86.61;100951.97;5053072;28;20438;-69
2021/06/12 02:28:45;;;;;;;4.07;3.33;;;;;;;20.03;85.52;100946.38;5053050;28;20943;-68
2021/06/12 02:31:16;;;;;;;4.40;2.80;;;;;;;20.07;84.55;100951.97;5057073;28;20442;-69
2021/06/12 02:33:45;;;;;;;4.53;3.00;;;;;;;20.08;85.13;100948.06;5057099;28;20441;-69
2021/06/12 02:36:11;;;;;;;4.00;3.60;;;;;;;20.14;84.52;100954.88;5056978;28;20457;-69
2021/06/12 02:38:37;;;;;;;4.47;3.30;;;;;;;20.13;84.01;100956.81;5057016;28;20438;-69
2021/06/12 02:41:05;;;;;;;3.37;2.97;;;;;;;20.13;84.63;100951.31;5056658;28;20485;-69
2021/06/12 02:43:32;;;;;;;3.67;2.60;;;;;;;20.14;84.80;100969.44;5066426;22;20673;-71
2021/06/12 02:45:58;;;;;;;4.17;3.17;;;;;;;20.13;84.45;100970.56;5036601;28;20462;-71
2021/06/12 02:58:35;;;;;;;4.17;3.30;;;;;;;20.24;83.50;100970.06;5015349;28;20464;-71
2021/06/12 03:01:02;;;;;;;3.87;2.70;;;;;;;20.19;83.49;100976.63;5016831;28;20952;-71
2021/06/12 03:03:28;;;;;;;4.63;3.30;;;;;;;20.23;84.48;100974.75;5016907;28;20440;-71
2021/06/12 03:05:57;;;;;;;3.40;2.83;;;;;;;20.21;83.49;100982.56;5016411;28;20487;-71
2021/06/12 03:08:25;;;;;;;3.57;2.97;;;;;;;20.18;82.84;100980.50;5018177;28;20576;-70
2021/06/12 03:10:53;;;;;;;3.87;2.83;;;;;;;20.16;83.58;100982.84;5016761;28;20501;-70
2021/06/12 03:13:23;;;;;;;3.27;2.93;;;;;;;20.19;82.64;100981.31;5016696;28;20432;-70
2021/06/12 03:15:51;;;;;;;3.27;2.57;;;;;;;20.20;82.13;100978.22;5016644;28;20467;-70
2021/06/12 03:18:18;;;;;;;3.83;2.90;;;;;;;20.24;81.51;100983.81;5016259;28;20812;-70
2021/06/12 03:20:44;;;;;;;4.33;3.00;;;;;;;20.26;81.48;100987.78;5016455;28;20518;-70
2021/06/12 03:23:11;;;;;;;3.90;3.10;;;;;;;20.27;81.54;100983.06;5016493;28;20440;-70
2021/06/12 03:25:38;;;;;;;4.40;2.20;;;;;;;20.26;80.19;100984.25;5016383;28;20518;-70
2021/06/12 03:28:05;;;;;;;3.33;3.03;;;;;;;20.20;80.73;100977.41;5016514;28;20439;-70
2021/06/12 03:30:31;;;;;;;2.70;2.50;;;;;;;20.19;81.30;100987.63;5016349;28;20443;-70
2021/06/12 03:33:02;;;;;;;2.93;2.00;;;;;;;20.22;81.34;100978.66;5016298;28;20436;-70
2021/06/12 03:35:28;;;;;;;3.47;2.27;;;;;;;20.24;81.43;100976.34;5016263;28;20494;-70
2021/06/12 03:37:55;;;;;;;2.60;2.30;;;;;;;20.23;81.70;100976.69;5016244;28;20432;-70
2021/06/12 03:40:21;;;;;;;2.40;2.20;;;;;;;20.21;81.98;100979.00;5015065;28;20488;-70
2021/06/12 03:42:48;;;;;;;2.10;1.83;;;;;;;20.26;81.38;100979.53;5015833;28;20437;-70
2021/06/12 03:45:15;;;;;;;3.67;3.23;;;;;;;20.25;80.91;100986.19;5016064;28;20890;-71
2021/06/12 03:47:42;;;;;;;2.37;2.10;;;;;;;20.27;80.86;100986.63;5015774;28;20941;-71
2021/06/12 03:50:12;;;;;;;2.90;2.07;;;;;;;20.28;81.92;100991.00;5016282;28;20440;-71
2021/06/12 03:52:40;;;;;;;3.50;2.77;;;;;;;20.26;81.49;100979.53;5015915;28;20451;-71
2021/06/12 03:55:08;;;;;;;3.10;2.50;;;;;;;20.29;81.34;100973.31;5015878;28;20494;-71
2021/06/12 03:57:35;;;;;;;4.17;2.10;;;;;;;20.32;81.88;100977.28;5015571;28;20459;-71
2021/06/12 04:00:02;;;;;;;2.30;1.80;;;;;;;20.33;81.13;100976.97;5015743;28;20491;-71
2021/06/12 04:02:28;;;;;;;3.43;2.20;;;;;;;20.33;81.92;100973.41;5015743;28;20444;-71
2021/06/12 04:04:57;;;;;;;3.97;2.63;;;;;;;20.38;81.63;100971.19;5015647;28;20521;-71
2021/06/12 04:07:24;;;;;;;2.20;1.93;;;;;;;20.37;81.72;100966.84;5015711;28;20506;-71
2021/06/12 04:09:50;;;;;;;3.20;2.60;;;;;;;20.37;81.34;100966.84;5015627;28;20444;-71
2021/06/12 04:12:16;;;;;;;2.90;2.47;;;;;;;20.40;81.19;100970.81;5015560;28;20448;-71
2021/06/12 04:14:42;;;;;;;2.63;2.30;;;;;;;20.47;81.43;100978.44;5015467;28;20468;-71
2021/06/12 04:17:08;;;;;;;2.73;2.10;;;;;;;20.51;81.09;100987.59;5015546;28;20510;-71
2021/06/12 04:19:37;;;;;;;3.00;2.40;;;;;;;20.50;81.08;100973.06;5015407;28;20791;-71
2021/06/12 04:22:04;;;;;;;2.60;2.40;;;;;;;20.51;81.31;100976.59;5015485;28;20440;-71
2021/06/12 04:24:31;;;;;;;3.47;2.53;;;;;;;20.55;81.53;100971.97;5015313;28;20841;-71
2021/06/12 04:26:57;;;;;;;2.27;1.83;;;;;;;20.58;80.90;100974.00;5015296;28;20452;-71
2021/06/12 04:29:23;;;;;;;2.70;2.13;;;;;;;20.61;81.39;100976.03;5015300;28;21011;-71
2021/06/12 04:31:49;;;;;;;2.97;2.57;;;;;;;20.60;81.05;100968.94;5015221;28;21052;-71
2021/06/12 04:34:15;;;;;;;5.70;2.70;;;;;;;20.54;81.09;100971.19;5015148;28;20487;-71
2021/06/12 04:36:41;;;;;;;3.63;2.47;;;;;;;20.55;81.58;100971.97;5015195;28;20444;-71
2021/06/12 04:39:07;;;;;;;3.00;2.50;;;;;;;20.60;81.79;100974.44;5015159;28;20444;-72
2021/06/12 04:41:34;;;;;;;5.50;2.20;;;;;;;20.62;81.83;100972.13;5020993;28;20490;-72
2021/06/12 04:44:00;;;;;;;4.70;2.70;;;;;;;20.68;81.54;100962.44;5015047;28;20440;-72
2021/06/12 04:46:26;;;;;;;2.60;2.20;;;;;;;20.75;81.19;100964.53;5014995;28;20447;-73
2021/06/12 04:48:52;;;;;;;3.10;2.03;;;;;;;20.66;81.87;100962.78;5014928;28;20436;-72
2021/06/12 04:51:18;;;;;;;2.77;2.57;;;;;;;20.74;81.17;100968.44;5014818;28;20932;-72
2021/06/12 04:53:44;;;;;;;2.20;2.00;;;;;;;20.77;81.24;100974.03;5014518;28;20821;-71
2021/06/12 04:56:10;;;;;;;2.23;1.80;;;;;;;20.83;81.57;100972.59;5014731;28;20444;-71
2021/06/12 04:58:37;;;;;;;3.83;2.50;;;;;;;20.90;81.70;100978.25;5014782;28;20432;-71
2021/06/12 05:01:03;;;;;;;2.50;2.30;;;;;;;20.89;80.92;100973.91;5014624;28;20484;-72
2021/06/12 05:03:29;;;;;;;2.83;2.30;;;;;;;20.84;81.38;100971.41;5014358;28;20498;-71
2021/06/12 05:05:55;;;;;;;2.60;2.40;;;;;;;20.88;81.12;100964.03;5014562;28;20452;-71
2021/06/12 05:08:21;;;;;;;2.53;2.30;;;;;;;20.96;81.03;100959.47;5014307;28;20444;-71
2021/06/12 05:10:47;;;;;;;2.23;2.00;;;;;;;21.05;80.73;100960.06;5014559;28;20567;-71
2021/06/12 05:13:13;;;;;;;2.50;2.30;;;;;;;21.16;81.28;100954.75;5014505;28;20502;-72
2021/06/12 05:15:40;;;;;;;4.27;3.03;;;;;;;21.26;80.05;100959.69;5014360;28;20467;-72
2021/06/12 05:18:06;;;;;;;3.00;2.30;;;;;;;21.35;79.86;100959.47;5014651;28;20436;-72
2021/06/12 05:20:35;;;;;;;3.50;2.50;;;;;;;21.27;79.42;100958.50;5013939;28;20488;-71
2021/06/12 05:23:01;;;;;;;2.23;1.90;;;;;;;21.37;79.44;100948.88;5014274;28;20867;-74
2021/06/12 05:25:27;;;;;;;2.60;2.17;;;;;;;21.34;79.21;100950.41;5014237;28;20467;-73
2021/06/12 05:27:53;;;;;;;2.97;2.37;;;;;;;21.33;79.58;100953.53;5014258;28;20474;-70
2021/06/12 05:30:20;;;;;;;4.63;2.67;;;;;;;21.38;78.82;100954.03;5014245;28;20514;-71
2021/06/12 05:32:47;;;;;;;2.50;2.00;;;;;;;21.44;79.13;100950.97;5014167;28;20433;-72
2021/06/12 05:35:13;;;;;;;3.77;3.13;;;;;;;21.53;78.32;100948.78;5013738;28;21047;-72
2021/06/12 05:37:40;;;;;;;3.27;2.23;;;;;;;21.58;78.04;100945.72;5013792;28;20443;-72
2021/06/12 05:40:08;;;;;;;2.40;2.10;;;;;;;21.66;77.93;100953.75;5013956;28;20570;-72
2021/06/12 05:42:35;;;;;;;3.40;2.43;;;;;;;21.62;77.85;100954.84;5014028;28;20452;-72
2021/06/12 05:45:01;;;;;;;2.00;1.80;;;;;;;21.59;77.03;100950.06;5013577;28;20459;-72
2021/06/12 05:47:27;;;;;;;2.20;1.60;;;;;;;21.57;77.58;100955.94;5013901;28;20459;-72
2021/06/12 05:49:54;;;;;;;2.20;1.77;;;;;;;21.51;77.74;100962.13;5013898;28;20440;-71
2021/06/12 05:52:20;;;;;;;2.73;2.10;;;;;;;21.41;77.94;100953.28;5013882;28;20444;-71
2021/06/12 05:54:46;;;;;;;1.70;1.60;;;;;;;21.35;77.93;100960.28;5013805;28;20579;-72
2021/06/12 05:57:12;;;;;;;1.57;1.40;;;;;;;21.32;77.32;100962.97;5013595;28;20969;-75
2021/06/12 05:59:38;;;;;;;1.93;1.73;;;;;;;21.29;77.81;100966.41;5013723;28;20860;-71
2021/06/12 06:02:04;;;;;;;2.10;1.80;;;;;;;21.29;77.96;100966.41;5013370;28;20860;-70
2021/06/12 06:04:30;;;;;;;1.60;1.50;;;;;;;21.29;78.11;100971.91;5012760;28;20993;-70
2021/06/12 06:06:57;;;;;;;2.20;1.60;;;;;;;21.31;77.85;100970.44;5013917;28;20439;-70
2021/06/12 06:09:23;;;;;;;1.53;1.43;;;;;;;21.38;77.94;100975.28;5013620;28;20455;-70
2021/06/12 06:11:49;;;;;;;2.33;1.33;;;;;;;21.37;78.27;100980.00;5013593;28;20440;-70
2021/06/12 06:14:15;;;;;;;2.50;1.57;;;;;;;21.34;78.15;100969.72;5013483;28;20464;-70
2021/06/12 06:16:41;;;;;;;2.07;1.70;;;;;;;21.33;78.50;100968.09;5013519;28;20455;-70
2021/06/12 06:19:08;;;;;;;2.70;1.90;;;;;;;21.45;80.50;100958.09;5013524;28;20448;-70
2021/06/12 06:21:34;;;;;;;2.23;1.70;;;;;;;21.53;79.67;100966.13;5013426;28;20486;-70
2021/06/12 06:24:02;;;;;;;2.70;2.07;;;;;;;21.58;78.91;100960.31;5013414;28;20448;-70
2021/06/12 06:26:28;;;;;;;2.20;1.60;;;;;;;21.62;78.01;100957.59;5013433;28;20493;-70
2021/06/12 06:28:54;;;;;;;2.50;1.83;;;;;;;21.59;77.71;100953.63;5013584;28;20452;-70
2021/06/12 06:31:19;;;;;;;1.90;1.70;;;;;;;21.62;77.25;100966.69;5013402;28;20980;-70
2021/06/12 06:33:45;;;;;;;1.73;1.37;;;;;;;21.55;77.40;100968.50;5013531;28;20464;-70
2021/06/12 06:36:11;;;;;;;3.20;1.80;;;;;;;21.50;77.66;100975.13;5013512;28;20845;-70
2021/06/12 06:38:37;;;;;;;1.93;1.73;;;;;;;21.59;77.64;100972.91;5019962;28;20448;-71
2021/06/12 06:41:05;;;;;;;2.50;1.97;;;;;;;21.66;77.50;100966.75;5013828;28;20530;-72
2021/06/12 06:43:31;;;;;;;2.50;2.07;;;;;;;21.78;77.95;100966.56;5013006;28;20440;-72
2021/06/12 06:45:57;;;;;;;1.77;1.40;;;;;;;21.86;77.99;100962.75;5013215;28;20463;-72
2021/06/12 06:48:23;;;;;;;1.80;1.50;;;;;;;21.96;77.53;100957.78;5013305;28;20448;-72
2021/06/12 06:50:49;;;;;;;3.67;1.90;;;;;;;21.99;76.89;100965.31;5013251;28;20845;-72
2021/06/12 06:53:15;;;;;;;2.37;1.80;;;;;;;21.97;77.25;100962.16;5013249;28;20439;-72
2021/06/12 06:55:41;;;;;;;1.67;1.57;;;;;;;21.89;77.30;100959.25;5013223;28;20901;-72
2021/06/12 06:58:09;;;;;;;1.70;1.60;;;;;;;21.91;77.16;100962.47;5012857;28;20986;-72
2021/06/12 07:00:35;;;;;;;2.33;1.93;;;;;;;21.78;77.49;100958.28;5013107;28;20491;-72
2021/06/12 07:03:01;;;;;;;3.17;1.83;;;;;;;21.76;77.58;100960.59;5013261;28;20787;-72
2021/06/12 07:05:27;;;;;;;3.37;2.00;;;;;;;21.71;78.27;100966.44;5013084;28;20468;-72
2021/06/12 07:07:53;;;;;;;2.07;1.67;;;;;;;21.74;78.23;100968.47;5013306;28;20510;-71
2021/06/12 07:10:19;;;;;;;1.50;1.23;;;;;;;21.77;78.58;100970.47;5013067;28;20444;-71
2021/06/12 07:12:46;;;;;;;3.27;1.70;;;;;;;21.75;77.75;100967.28;5013103;28;20440;-70
2021/06/12 07:15:14;;;;;;;3.30;2.07;;;;;;;21.82;77.81;100975.66;5013941;28;20509;-69
2021/06/12 07:17:40;;;;;;;2.97;2.20;;;;;;;21.85;77.94;100972.19;5016657;28;20447;-73
2021/06/12 07:20:08;;;;;;;2.20;1.80;;;;;;;21.85;77.83;100963.91;5016626;28;20448;-73
2021/06/12 07:22:35;;;;;;;2.03;1.73;;;;;;;21.85;77.99;100968.63;5016737;28;20439;-73
2021/06/12 07:25:01;;;;;;;3.30;1.97;;;;;;;21.84;77.92;100959.56;5016435;28;20472;-72
2021/06/12 07:27:27;;;;;;;3.23;2.10;;;;;;;21.73;78.08;100958.56;5016243;28;20454;-73
2021/06/12 07:29:53;;;;;;;4.20;2.83;;;;;;;21.71;78.25;100954.59;5016464;28;20470;-72
2021/06/12 07:32:20;;;;;;;2.20;1.63;;;;;;;21.63;78.19;100957.22;5016125;28;20971;-72
2021/06/12 07:34:46;;;;;;;4.07;1.80;;;;;;;21.53;78.97;100949.56;5016255;28;20471;-73
2021/06/12 07:37:12;;;;;;;2.40;1.80;;;;;;;21.52;79.13;100941.69;5015715;28;20551;-72
2021/06/12 07:39:38;;;;;;;4.67;2.20;;;;;;;21.53;79.19;100943.28;5016265;28;20448;-72
2021/06/12 07:42:04;;;;;;;2.87;2.20;;;;;;;21.57;79.35;100950.44;5016174;28;20487;-72
2021/06/12 07:44:30;;;;;;;2.80;2.07;;;;;;;21.59;79.40;100948.09;5016011;28;20472;-72
2021/06/12 07:46:56;;;;;;;3.17;1.60;;;;;;;21.70;79.17;100939.25;5016096;28;21003;-72
2021/06/12 07:49:24;;;;;;;3.83;2.77;;;;;;;21.74;79.46;100929.88;5016066;28;20471;-72
2021/06/12 07:51:50;;;;;;;3.17;2.00;;;;;;;21.84;78.64;100934.75;5016025;28;20499;-72
2021/06/12 07:54:16;;;;;;;4.43;2.77;;;;;;;21.91;77.86;100934.88;5015776;28;20452;-72
2021/06/12 07:56:42;;;;;;;4.20;2.60;;;;;;;21.90;78.56;100933.25;5015946;28;20460;-73
2021/06/12 07:59:08;;;;;;;2.77;2.27;;;;;;;21.99;78.53;100927.50;5015972;28;20428;-72
2021/06/12 08:01:34;;;;;;;3.40;2.57;;;;;;;22.05;78.07;100923.25;5015771;28;20494;-73
2021/06/12 08:04:00;;;;;;;4.33;3.00;;;;;;;22.11;77.30;100912.69;5014569;28;20451;-72
2021/06/12 08:06:28;;;;;;;2.87;2.10;;;;;;;22.08;77.27;100919.75;5001868;28;20440;-73
2021/06/12 08:08:54;;;;;;;3.43;2.30;;;;;;;22.13;76.87;100919.47;5015755;28;20444;-71
2021/06/12 08:11:20;;;;;;;4.50;2.90;;;;;;;22.11;76.75;100912.69;5015599;28;20486;-72
2021/06/12 08:13:46;;;;;;;6.30;2.90;;;;;;;22.04;76.95;100915.34;5015368;28;20875;-70
2021/06/12 08:16:12;;;;;;;7.43;3.00;;;;;;;22.01;76.92;100916.88;5015151;28;20475;-70
2021/06/12 08:18:38;;;;;;;4.33;2.33;;;;;;;21.86;77.82;100920.56;5015754;28;20500;-70
2021/06/12 08:21:05;;;;;;;6.47;2.27;;;;;;;21.88;77.71;100918.25;5015234;28;20487;-70
2021/06/12 08:23:32;;;;;;;5.73;2.83;;;;;;;21.96;77.61;100906.19;5015148;28;20815;-70
2021/06/12 08:25:58;;;;;;;4.83;2.97;;;;;;;22.05;77.35;100897.63;5015254;28;20891;-70
2021/06/12 08:28:24;;;;;;;5.13;3.00;;;;;;;22.09;76.65;100899.28;5014130;28;20444;-70
2021/06/12 08:30:50;;;;;;;3.77;2.47;;;;;;;22.14;77.00;100900.97;5015369;28;20523;-70
2021/06/12 08:33:16;;;;;;;4.63;3.10;;;;;;;22.22;77.20;100905.38;5015351;28;20864;-71
2021/06/12 08:35:42;;;;;;;4.57;2.57;;;;;;;22.28;77.03;100892.09;5015307;28;20496;-71
2021/06/12 08:38:08;;;;;;;5.23;2.87;;;;;;;22.50;76.67;100887.66;5021863;28;20444;-71
2021/06/12 08:40:36;;;;;;;4.30;3.07;;;;;;;22.56;75.82;100894.41;5014767;28;21082;-71
2021/06/12 08:43:05;;;;;;;8.10;3.03;;;;;;;22.55;75.89;100895.59;5014707;28;20883;-71
2021/06/12 08:45:31;;;;;;;4.83;3.00;;;;;;;22.56;75.98;100886.94;5014548;28;21027;-71
2021/06/12 08:47:58;;;;;;;3.53;2.60;;;;;;;22.52;76.14;100885.28;5014952;28;20444;-71
2021/06/12 08:50:25;;;;;;;4.60;3.13;;;;;;;22.62;75.58;100881.84;5014690;28;20436;-71
2021/06/12 08:52:52;;;;;;;5.30;2.87;;;;;;;22.62;75.40;100890.97;5014853;28;20444;-70
2021/06/12 08:55:19;;;;;;;5.30;3.07;;;;;;;22.51;75.46;100887.25;5014696;28;20465;-70
2021/06/12 08:57:47;;;;;;;5.30;3.27;;;;;;;22.38;76.32;100883.16;5014559;28;20460;-71
2021/06/12 09:00:14;;;;;;;4.90;2.93;;;;;;;22.20;76.78;100888.41;5014641;28;20470;-70
2021/06/12 09:03:10;;;;;;;3.97;2.30;;;;;;;22.06;77.52;100896.47;5014688;28;20498;-70
2021/06/12 09:05:42;;;;;;;5.90;2.87;;;;;;;21.92;78.63;100900.59;5014253;28;20889;-71
2021/06/12 09:08:11;;;;;;;4.43;3.00;;;;;;;21.82;78.43;100894.91;5016076;28;20456;-70
2021/06/12 09:10:44;;;;;;;5.87;3.10;;;;;;;21.67;79.41;100894.69;5014460;28;20440;-70
2021/06/12 09:13:11;;;;;;;4.97;2.90;;;;;;;21.27;82.03;100895.13;5014812;28;20429;-71
2021/06/12 09:15:37;;;;;;;6.13;3.63;;;;;;;20.92;85.97;100895.25;5014442;28;20468;-69
2021/06/12 09:18:04;;;;;;;9.87;4.07;;;;;;;20.47;90.01;100904.13;5014280;28;20459;-69
2021/06/12 09:20:42;;;;;;;8.10;2.90;;;;;;;20.00;94.76;100905.03;5014230;28;20479;-69
2021/06/12 09:23:10;;;;;;;3.77;2.70;;;;;;;19.67;97.32;100906.22;5013942;28;20443;-69
2021/06/12 09:25:39;;;;;;;7.27;4.70;;;;;;;19.47;99.90;100907.22;5014299;28;20558;-70
2021/06/12 09:28:05;;;;;;;8.17;4.50;;;;;;;19.30;100.00;100898.19;5014087;28;20432;-73
2021/06/12 09:30:33;;;;;;;4.90;2.87;;;;;;;19.27;100.00;100893.41;5014152;28;20444;-74
2021/06/12 09:32:59;;;;;;;5.20;3.70;;;;;;;19.22;100.00;100887.38;5013702;28;20957;-72
2021/06/12 09:35:33;;;;;;;7.80;3.90;;;;;;;19.26;100.00;100880.03;5013964;28;20482;-73
2021/06/12 09:38:00;;;;;;;6.03;3.23;;;;;;;19.29;100.00;100880.09;5013940;28;20475;-73
2021/06/12 09:40:30;;;;;;;6.97;4.20;;;;;;;19.34;100.00;100885.31;5013796;28;20439;-73
2021/06/12 09:43:00;;;;;;;6.60;3.43;;;;;;;19.40;100.00;100889.44;5013909;28;20425;-74
2021/06/12 09:45:27;;;;;;;5.57;4.10;;;;;;;19.32;100.00;100884.91;5013469;28;21072;-72
2021/06/12 09:48:08;;;;;;;6.43;3.43;;;;;;;19.46;100.00;100880.91;5013806;28;20455;-75
2021/06/12 09:50:34;;;;;;;4.57;2.70;;;;;;;19.54;100.00;100879.94;5013849;28;20429;-76
2021/06/12 09:53:10;;;;;;;8.60;3.83;;;;;;;19.62;100.00;100881.75;5013614;28;20511;-75
2021/06/12 09:55:36;;;;;;;5.50;3.97;;;;;;;19.62;100.00;100882.53;5013776;28;20463;-74
2021/06/12 09:58:04;;;;;;;4.30;2.93;;;;;;;19.74;100.00;100889.88;5013046;28;20472;-76
2021/06/12 10:00:33;;;;;;;6.37;3.90;;;;;;;19.85;100.00;100890.94;5013674;28;20447;-74
2021/06/12 10:02:59;;;;;;;5.80;3.70;;;;;;;20.00;100.00;100896.78;5013596;28;20452;-74
2021/06/12 10:05:27;;;;;;;6.67;4.53;;;;;;;20.12;100.00;100891.97;5013069;28;20839;-74
2021/06/12 10:07:54;;;;;;;7.47;3.80;;;;;;;20.23;99.69;100877.66;5013528;28;20456;-74
2021/06/12 10:10:20;;;;;;;7.33;3.80;;;;;;;20.32;97.80;100875.50;5013460;28;20463;-74
2021/06/12 10:12:47;;;;;;;8.10;4.20;;;;;;;20.50;95.24;100886.94;5013470;28;20444;-74
2021/06/12 10:15:13;;;;;;;5.13;3.50;;;;;;;20.71;94.23;100881.84;5013371;28;20884;-75
2021/06/12 10:17:42;;;;;;;4.27;3.73;;;;;;;20.78;93.45;100871.00;5013141;28;20953;-75
2021/06/12 10:20:09;;;;;;;4.50;3.87;;;;;;;20.96;92.33;100868.59;5013490;28;20440;-73
2021/06/12 10:22:37;;;;;;;3.17;2.50;;;;;;;21.23;92.34;100876.94;5013330;28;20483;-72
2021/06/12 10:25:04;;;;;;;4.37;3.50;;;;;;;21.48;90.55;100877.41;5013743;28;20830;-73
2021/06/12 10:27:30;;;;;;;4.60;3.83;;;;;;;21.87;90.54;100865.06;5013650;28;20451;-72
2021/06/12 10:29:56;;;;;;;4.27;3.60;;;;;;;22.11;86.38;100865.78;5013201;28;20451;-73
2021/06/12 10:32:22;;;;;;;5.77;3.90;;;;;;;22.32;85.93;100862.56;5012417;28;20941;-72
2021/06/12 10:34:51;;;;;;;5.13;3.13;;;;;;;22.38;82.91;100853.56;5018923;28;20444;-74
2021/06/12 10:37:17;;;;;;;5.93;3.80;;;;;;;22.39;79.97;100852.38;5012786;28;20444;-74
2021/06/12 10:39:45;;;;;;;5.57;3.20;;;;;;;22.39;80.31;100852.38;5012600;28;20446;-74
2021/06/12 10:42:17;;;;;;;2.97;2.70;;;;;;;22.65;81.48;100853.50;5012582;28;20480;-74
2021/06/12 10:44:45;;;;;;;5.50;3.27;;;;;;;22.78;79.00;100849.31;5012675;28;20491;-72
2021/06/12 10:47:11;;;;;;;3.77;2.43;;;;;;;22.81;76.73;100851.31;5012690;28;20501;-73
2021/06/12 10:49:39;;;;;;;3.70;2.57;;;;;;;22.83;77.42;100843.44;5012760;28;20459;-72
2021/06/12 10:52:07;;;;;;;3.67;2.77;;;;;;;22.95;76.67;100847.16;5016539;28;20444;-72
2021/06/12 10:54:35;;;;;;;4.37;2.93;;;;;;;22.91;76.03;100845.16;5016540;28;20470;-71
2021/06/12 10:57:15;;;;;;;5.20;2.70;;;;;;;22.81;75.31;100845.00;5015988;28;20464;-73
2021/06/12 10:59:47;;;;;;;4.97;3.23;;;;;;;22.49;75.45;100828.06;5016384;28;20428;-72
2021/06/12 11:02:19;;;;;;;4.90;3.20;;;;;;;22.39;75.70;100824.00;5016473;28;20510;-72
2021/06/12 11:04:55;;;;;;;4.43;2.60;;;;;;;22.44;76.57;100817.34;5016294;28;20472;-72
2021/06/12 11:07:27;;;;;;;5.50;2.97;;;;;;;22.54;75.66;100822.22;5016293;28;20490;-73
2021/06/12 11:10:25;;;;;;;2.97;2.40;;;;;;;22.61;75.03;100814.00;5016183;28;20448;-72
2021/06/12 11:12:57;;;;;;;2.77;2.20;;;;;;;22.83;75.29;100817.78;5012517;28;20525;-72
2021/06/12 11:15:32;;;;;;;3.50;2.60;;;;;;;22.97;71.21;100809.66;5016531;28;20460;-72
2021/06/12 11:18:16;;;;;;;2.80;1.80;;;;;;;22.92;71.27;100813.56;5016812;28;20900;-72
2021/06/12 11:20:45;;;;;;;3.20;2.53;;;;;;;22.98;70.49;100805.75;5016049;28;20470;-72
2021/06/12 11:23:14;;;;;;;2.97;2.67;;;;;;;23.27;69.46;100797.72;5016109;28;20547;-72
2021/06/12 11:25:49;;;;;;;7.00;2.10;;;;;;;23.53;68.54;100802.25;5015806;28;20467;-73
2021/06/12 11:28:40;;;;;;;3.47;2.77;;;;;;;23.81;67.27;100793.38;5015952;28;20432;-73
2021/06/12 11:31:27;;;;;;;2.07;1.73;;;;;;;23.89;64.06;100795.00;5012650;28;20490;-73
2021/06/12 11:34:26;;;;;;;3.33;2.60;;;;;;;23.84;65.29;100790.63;5015749;28;20523;-72
2021/06/12 11:37:20;;;;;;;2.57;1.77;;;;;;;23.78;64.03;100785.88;5015400;28;20497;-74